createdAt,value
2023-01-13T00:01:00.478Z,69.63
2023-01-13T00:03:30.117Z,70.12
2023-01-13T00:05:59.846Z,70.40
2023-01-13T00:08:27.807Z,70.51
2023-01-13T00:10:55.261Z,71.06
2023-01-13T00:13:23.242Z,70.94
2023-01-13T00:15:56.376Z,70.87
2023-01-13T00:18:24.442Z,70.61
2023-01-13T00:21:00.021Z,70.95
2023-01-13T00:23:28.757Z,71.07
2023-01-13T00:25:56.735Z,71.09
2023-01-13T00:28:24.636Z,70.56
2023-01-13T00:30:52.404Z,71.14
2023-01-13T00:33:20.674Z,71.06
2023-01-13T00:35:56.070Z,71.23
2023-01-13T00:38:25.479Z,70.84
2023-01-13T00:40:56.864Z,70.82
2023-01-13T00:43:25.463Z,71.07
2023-01-13T00:45:53.261Z,71.27
2023-01-13T00:48:22.471Z,71.25
2023-01-13T00:50:55.786Z,71.34
2023-01-13T00:53:25.755Z,70.95
2023-01-13T00:56:00.030Z,70.69
2023-01-13T00:58:28.191Z,71.02
2023-01-13T01:00:59.524Z,71.15
2023-01-13T01:03:27.677Z,71.12
2023-01-13T01:05:55.295Z,71.50
2023-01-13T01:08:23.467Z,71.48
2023-01-13T01:11:01.069Z,71.20
2023-01-13T01:13:29.122Z,70.95
2023-01-13T01:15:56.907Z,70.74
2023-01-13T01:18:25.076Z,71.17
2023-01-13T01:20:52.584Z,70.44
2023-01-13T01:23:20.429Z,70.56
2023-01-13T01:25:48.116Z,70.76
2023-01-13T01:28:17.730Z,70.72
2023-01-13T01:30:45.318Z,70.21
2023-01-13T01:33:13.184Z,69.63
2023-01-13T01:35:40.863Z,70.35
2023-01-13T01:38:08.827Z,69.63
2023-01-13T01:40:36.247Z,70.10
2023-01-13T01:43:14.346Z,70.41
2023-01-13T01:45:43.307Z,70.34
2023-01-13T01:48:11.764Z,69.88
2023-01-13T01:50:40.269Z,69.98
2023-01-13T01:53:13.334Z,70.07
2023-01-13T01:55:41.517Z,70.90
2023-01-13T01:58:13.887Z,70.03
2023-01-13T02:00:41.577Z,71.41
2023-01-13T02:03:11.472Z,71.48
2023-01-13T02:05:38.978Z,70.45
2023-01-13T02:08:09.056Z,70.23
2023-01-13T02:10:37.517Z,70.40
2023-01-13T02:13:07.541Z,70.04
2023-01-13T02:15:42.459Z,70.58
2023-01-13T02:18:35.455Z,70.50
2023-01-13T02:21:24.739Z,70.52
2023-01-13T02:24:17.419Z,70.80
2023-01-13T02:27:23.119Z,70.76
2023-01-13T02:30:07.460Z,70.83
2023-01-13T02:32:44.860Z,70.87
2023-01-13T02:35:21.559Z,70.18
2023-01-13T02:37:50.793Z,70.14
2023-01-13T02:40:24.090Z,69.55
2023-01-13T02:42:57.859Z,69.71
2023-01-13T02:45:32.447Z,68.85
2023-01-13T02:48:02.119Z,69.36
2023-01-13T02:50:36.368Z,69.52
2023-01-13T02:53:08.619Z,69.72
2023-01-13T02:55:40.340Z,70.87
2023-01-13T02:58:10.513Z,71.60
2023-01-13T03:00:41.725Z,72.90
2023-01-13T03:03:09.288Z,73.38
2023-01-13T03:05:38.321Z,73.61
2023-01-13T03:08:17.082Z,72.96
2023-01-13T03:10:59.681Z,72.23
2023-01-13T03:13:42.734Z,71.42
2023-01-13T03:16:22.995Z,71.22
2023-01-13T03:18:58.431Z,71.13
2023-01-13T03:21:31.042Z,71.22
2023-01-13T03:24:05.009Z,71.37
2023-01-13T03:26:40.247Z,71.00
2023-01-13T03:29:15.070Z,70.80
2023-01-13T03:31:53.692Z,70.81
2023-01-13T03:34:25.443Z,71.04
2023-01-13T03:36:58.193Z,70.24
2023-01-13T03:39:32.438Z,70.74
2023-01-13T03:42:05.678Z,70.66
2023-01-13T03:44:36.073Z,70.22
2023-01-13T03:47:12.693Z,70.64
2023-01-13T03:49:46.079Z,70.41
2023-01-13T03:52:22.609Z,70.18
2023-01-13T03:54:55.034Z,70.16
2023-01-13T03:57:27.707Z,70.30
2023-01-13T03:59:59.657Z,69.88
2023-01-13T04:02:36.771Z,69.92
2023-01-13T04:05:08.855Z,69.80
2023-01-13T04:07:46.568Z,69.67
2023-01-13T04:10:20.168Z,69.95
2023-01-13T04:12:53.611Z,70.37
2023-01-13T04:15:24.263Z,70.34
2023-01-13T04:17:54.612Z,69.65
2023-01-13T04:20:22.352Z,69.61
2023-01-13T04:22:50.260Z,69.65
2023-01-13T04:25:17.989Z,69.83
2023-01-13T04:27:45.895Z,69.44
2023-01-13T04:30:13.746Z,69.30
2023-01-13T04:32:41.665Z,69.53
2023-01-13T04:35:11.323Z,69.39
2023-01-13T04:37:39.372Z,68.84
2023-01-13T04:40:08.422Z,68.94
2023-01-13T04:42:36.250Z,69.04
2023-01-13T04:45:04.011Z,69.19
2023-01-13T04:47:31.988Z,69.00
2023-01-13T04:49:59.493Z,68.84
2023-01-13T04:52:28.833Z,68.70
2023-01-13T04:54:56.214Z,68.59
2023-01-13T04:57:24.257Z,69.12
2023-01-13T04:59:51.727Z,68.73
2023-01-13T05:02:19.651Z,68.25
2023-01-13T05:04:47.891Z,68.68
2023-01-13T05:07:16.751Z,68.60
2023-01-13T05:09:45.651Z,67.87
2023-01-13T05:12:13.743Z,68.03
2023-01-13T05:14:41.263Z,68.21
2023-01-13T05:17:10.942Z,68.66
2023-01-13T05:19:38.315Z,69.01
2023-01-13T05:22:06.415Z,68.78
2023-01-13T05:24:33.970Z,68.42
2023-01-13T05:27:03.404Z,68.32
2023-01-13T05:29:33.743Z,68.72
2023-01-13T05:32:05.252Z,68.71
2023-01-13T05:34:33.497Z,68.83
2023-01-13T05:37:01.280Z,69.28
2023-01-13T05:39:28.976Z,69.11
2023-01-13T05:41:57.152Z,68.84
2023-01-13T05:44:26.104Z,68.45
2023-01-13T05:46:53.975Z,68.53
2023-01-13T05:49:21.537Z,68.13
2023-01-13T05:51:49.656Z,68.30
2023-01-13T05:54:17.168Z,68.63
2023-01-13T05:56:44.991Z,69.24
2023-01-13T05:59:12.671Z,69.21
2023-01-13T06:01:42.069Z,69.35
2023-01-13T06:04:09.647Z,68.83
2023-01-13T06:06:37.644Z,68.58
2023-01-13T06:09:05.146Z,68.82
2023-01-13T06:11:33.223Z,68.96
2023-01-13T06:14:00.794Z,69.22
2023-01-13T06:16:28.806Z,69.38
2023-01-13T06:18:57.884Z,69.00
2023-01-13T06:21:25.922Z,69.46
2023-01-13T06:23:53.668Z,69.01
2023-01-13T06:26:25.107Z,69.32
2023-01-13T06:28:52.625Z,69.31
2023-01-13T06:31:20.617Z,69.89
2023-01-13T06:33:51.396Z,69.56
2023-01-13T06:36:24.664Z,69.58
2023-01-13T06:38:55.049Z,69.63
2023-01-13T06:41:23.872Z,69.35
2023-01-13T06:43:51.554Z,69.68
2023-01-13T06:46:19.523Z,69.86
2023-01-13T06:48:46.937Z,70.31
2023-01-13T06:51:15.069Z,70.07
2023-01-13T06:53:43.951Z,69.66
2023-01-13T06:56:11.797Z,68.99
2023-01-13T06:58:39.226Z,68.85
2023-01-13T07:01:07.273Z,69.31
2023-01-13T07:03:34.777Z,69.63
2023-01-13T07:06:02.652Z,69.89
2023-01-13T07:08:30.097Z,69.89
2023-01-13T07:11:01.819Z,70.31
2023-01-13T07:13:29.624Z,70.24
2023-01-13T07:15:59.134Z,70.49
2023-01-13T07:18:27.910Z,70.22
2023-01-13T07:20:58.031Z,70.05
2023-01-13T07:23:25.822Z,69.56
2023-01-13T07:25:55.482Z,69.65
2023-01-13T07:28:24.822Z,69.81
2023-01-13T07:30:53.100Z,69.45
2023-01-13T07:33:21.015Z,69.29
2023-01-13T07:35:57.439Z,69.18
2023-01-13T07:38:25.686Z,69.66
2023-01-13T07:40:53.605Z,69.94
2023-01-13T07:51:13.753Z,70.74
2023-01-13T07:53:41.508Z,70.71
2023-01-13T07:56:09.045Z,70.24
2023-01-13T08:06:20.328Z,69.64
2023-01-13T08:08:48.223Z,70.11
2023-01-13T08:11:15.641Z,69.67
2023-01-13T08:13:43.620Z,69.24
2023-01-13T08:16:13.452Z,69.47
2023-01-13T08:18:41.811Z,69.21
2023-01-13T08:21:11.072Z,69.50
2023-01-13T08:23:40.715Z,69.16
2023-01-13T08:26:10.145Z,68.64
2023-01-13T08:28:38.815Z,69.67
2023-01-13T08:31:08.447Z,69.74
2023-01-13T08:33:36.386Z,69.72
2023-01-13T08:36:04.724Z,70.05
2023-01-13T08:38:33.237Z,69.35
2023-01-13T08:41:08.203Z,69.95
2023-01-13T08:43:35.939Z,69.52
2023-01-13T08:46:04.035Z,69.22
2023-01-13T08:48:32.015Z,69.78
2023-01-13T08:51:04.352Z,69.16
2023-01-13T08:53:32.719Z,69.06
2023-01-13T08:56:01.709Z,69.30
2023-01-13T08:58:29.553Z,69.43
2023-01-13T09:00:57.485Z,69.40
2023-01-13T09:03:25.457Z,70.04
2023-01-13T09:05:52.942Z,69.61
2023-01-13T09:08:20.979Z,68.87
2023-01-13T09:10:48.655Z,69.01
2023-01-13T09:13:18.186Z,68.83
2023-01-13T09:15:46.353Z,69.10
2023-01-13T09:18:14.954Z,69.46
2023-01-13T09:20:42.650Z,69.23
2023-01-13T09:23:11.453Z,68.48
2023-01-13T09:25:39.638Z,68.72
2023-01-13T09:28:07.752Z,68.64
2023-01-13T09:30:37.425Z,68.38
2023-01-13T09:33:05.526Z,67.72
2023-01-13T09:35:33.073Z,68.16
2023-01-13T09:38:01.085Z,68.38
2023-01-13T09:40:28.623Z,68.10
2023-01-13T09:43:02.909Z,67.78
2023-01-13T09:45:36.823Z,68.13
2023-01-13T09:48:13.581Z,67.72
2023-01-13T09:50:58.812Z,67.42
2023-01-13T09:53:30.598Z,67.05
2023-01-13T09:55:58.245Z,67.43
2023-01-13T09:58:27.261Z,67.38
2023-01-13T10:01:06.599Z,66.73
2023-01-13T10:03:36.354Z,65.63
2023-01-13T10:06:13.737Z,66.67
2023-01-13T10:08:43.679Z,65.94
2023-01-13T10:11:16.422Z,65.65
2023-01-13T10:13:44.830Z,65.27
2023-01-13T10:16:24.763Z,65.68
2023-01-13T10:19:04.893Z,64.93
2023-01-13T10:22:01.934Z,65.56
2023-01-13T10:24:33.418Z,65.70
2023-01-13T10:27:04.617Z,65.36
2023-01-13T10:29:33.545Z,65.47
2023-01-13T10:32:01.164Z,66.21
2023-01-13T10:34:30.356Z,66.08
2023-01-13T10:37:00.187Z,66.19
2023-01-13T10:39:34.840Z,66.06
2023-01-13T10:42:06.641Z,65.53
2023-01-13T10:44:47.404Z,65.82
2023-01-13T10:47:21.501Z,65.64
2023-01-13T10:50:13.609Z,66.36
2023-01-13T10:52:54.898Z,65.97
2023-01-13T10:55:27.333Z,66.26
2023-01-13T10:57:55.002Z,66.18
2023-01-13T11:00:34.005Z,66.80
2023-01-13T11:03:17.483Z,66.53
2023-01-13T11:05:52.422Z,66.33
2023-01-13T11:08:22.670Z,66.96
2023-01-13T11:11:01.203Z,66.63
2023-01-13T11:13:34.341Z,67.41
2023-01-13T11:16:29.815Z,68.11
2023-01-13T11:19:02.681Z,67.23
2023-01-13T11:21:38.981Z,66.59
2023-01-13T11:24:15.579Z,68.08
2023-01-13T11:26:47.704Z,67.62
2023-01-13T11:29:22.449Z,68.08
2023-01-13T11:31:55.673Z,67.19
2023-01-13T11:34:30.554Z,67.45
2023-01-13T11:37:04.146Z,68.00
2023-01-13T11:39:44.282Z,66.71
2023-01-13T11:42:20.881Z,67.33
2023-01-13T11:44:56.614Z,66.32
2023-01-13T11:47:26.474Z,65.93
2023-01-13T11:49:54.408Z,66.53
2023-01-13T11:52:32.450Z,66.19
2023-01-13T11:55:22.447Z,65.81
2023-01-13T11:58:02.875Z,65.82
2023-01-13T12:00:39.520Z,65.46
2023-01-13T12:03:22.275Z,65.16
2023-01-13T12:06:01.690Z,66.00
2023-01-13T12:08:47.473Z,66.54
2023-01-13T12:11:22.921Z,65.52
2023-01-13T12:14:06.736Z,65.30
2023-01-13T12:16:34.936Z,64.80
2023-01-13T12:19:25.946Z,64.74
2023-01-13T12:22:10.154Z,64.65
2023-01-13T12:24:44.671Z,63.82
2023-01-13T12:27:19.130Z,63.48
2023-01-13T12:29:51.594Z,64.02
2023-01-13T12:32:23.657Z,64.47
2023-01-13T12:35:07.126Z,63.95
2023-01-13T12:37:39.824Z,63.80
2023-01-13T12:40:28.695Z,63.80
2023-01-13T12:43:03.108Z,63.72
2023-01-13T12:45:32.031Z,64.40
2023-01-13T12:48:00.402Z,64.05
2023-01-13T12:50:58.293Z,64.48
2023-01-13T12:53:36.977Z,64.44
2023-01-13T12:56:37.947Z,63.60
2023-01-13T12:59:44.599Z,64.46
2023-01-13T13:02:39.200Z,63.52
2023-01-13T13:05:46.036Z,63.96
2023-01-13T13:08:26.400Z,64.80
2023-01-13T13:11:14.564Z,64.32
2023-01-13T13:13:47.547Z,64.67
2023-01-13T13:16:57.060Z,64.63
2023-01-13T13:19:44.968Z,65.11
2023-01-13T13:22:37.347Z,65.81
2023-01-13T13:25:24.426Z,65.80
2023-01-13T13:28:06.331Z,65.25
2023-01-13T13:30:37.774Z,65.66
2023-01-13T13:33:31.626Z,65.59
2023-01-13T13:36:11.328Z,66.15
2023-01-13T13:38:54.214Z,65.92
2023-01-13T13:41:24.430Z,66.34
2023-01-13T13:43:52.010Z,66.75
2023-01-13T13:46:32.603Z,67.04
2023-01-13T13:49:00.347Z,66.83
2023-01-13T13:51:35.180Z,67.17
2023-01-13T13:54:03.823Z,66.93
2023-01-13T13:56:38.621Z,67.01
2023-01-13T13:59:10.587Z,67.32
2023-01-13T14:01:42.864Z,67.54
2023-01-13T14:04:17.345Z,68.17
2023-01-13T14:06:53.695Z,67.88
2023-01-13T14:09:22.596Z,68.39
2023-01-13T14:11:59.898Z,68.96
2023-01-13T14:14:27.982Z,70.15
2023-01-13T14:16:57.974Z,72.22
2023-01-13T14:19:32.106Z,73.70
2023-01-13T14:22:02.247Z,74.92
2023-01-13T14:24:31.296Z,75.44
2023-01-13T14:27:15.558Z,76.50
2023-01-13T14:29:43.423Z,77.78
2023-01-13T14:32:15.361Z,77.86
2023-01-13T14:34:43.241Z,78.04
2023-01-13T14:37:25.127Z,77.86
2023-01-13T14:39:52.870Z,78.04
2023-01-13T14:42:22.209Z,77.93
2023-01-13T14:44:51.168Z,76.91
2023-01-13T14:47:24.249Z,77.39
2023-01-13T14:49:59.124Z,76.63
2023-01-13T14:52:30.007Z,77.56
2023-01-13T14:55:21.374Z,77.61
2023-01-13T14:57:49.534Z,77.58
2023-01-13T15:00:24.061Z,77.30
2023-01-13T15:03:07.175Z,77.92
2023-01-13T15:05:45.046Z,77.97
2023-01-13T15:08:36.949Z,78.82
2023-01-13T15:11:07.304Z,78.89
2023-01-13T15:13:50.256Z,78.91
2023-01-13T15:16:23.824Z,78.15
2023-01-13T15:18:54.042Z,77.16
2023-01-13T15:21:21.720Z,76.50
2023-01-13T15:23:49.816Z,77.04
2023-01-13T15:26:23.520Z,78.05
2023-01-13T15:28:52.150Z,77.36
2023-01-13T15:31:20.065Z,77.23
2023-01-13T15:33:48.549Z,77.64
2023-01-13T15:36:29.150Z,77.78
2023-01-13T15:38:58.459Z,78.13
2023-01-13T15:41:26.484Z,78.92
2023-01-13T15:43:54.656Z,80.23
2023-01-13T15:46:22.719Z,80.25
2023-01-13T15:48:53.171Z,81.12
2023-01-13T15:51:22.661Z,81.26
2023-01-13T15:53:52.148Z,81.11
2023-01-13T15:56:25.512Z,80.89
2023-01-13T15:58:53.557Z,81.04
2023-01-13T16:01:21.654Z,80.04
2023-01-13T16:03:49.601Z,79.77
2023-01-13T16:06:19.347Z,81.04
2023-01-13T16:08:47.242Z,81.37
2023-01-13T16:11:16.269Z,82.59
2023-01-13T16:13:44.229Z,81.90
2023-01-13T16:16:20.769Z,81.71
2023-01-13T16:18:49.304Z,80.92
2023-01-13T16:21:17.221Z,80.04
2023-01-13T16:23:45.540Z,80.87
2023-01-13T16:26:19.040Z,79.95
2023-01-13T16:28:47.245Z,79.85
2023-01-13T16:31:22.676Z,80.55
2023-01-13T16:33:50.992Z,80.39
2023-01-13T16:36:22.639Z,80.70
2023-01-13T16:38:51.758Z,80.78
2023-01-13T16:41:22.181Z,80.35
2023-01-13T16:43:50.602Z,80.01
2023-01-13T16:46:24.661Z,79.85
2023-01-13T16:48:53.716Z,79.58
2023-01-13T16:51:21.988Z,78.85
2023-01-13T16:53:50.174Z,78.96
2023-01-13T16:56:24.663Z,77.32
2023-01-13T16:58:54.115Z,78.24
2023-01-13T17:01:24.525Z,78.04
2023-01-13T17:03:53.256Z,76.55
2023-01-13T17:06:24.532Z,76.49
2023-01-13T17:08:53.393Z,76.49
2023-01-13T17:11:22.669Z,75.75
2023-01-13T17:13:50.690Z,75.51
2023-01-13T17:16:20.420Z,74.81
2023-01-13T17:18:49.065Z,75.15
2023-01-13T17:21:17.112Z,75.75
2023-01-13T17:23:45.393Z,75.68
2023-01-13T17:26:28.124Z,76.24
2023-01-13T17:28:56.114Z,76.72
2023-01-13T17:31:23.888Z,76.17
2023-01-13T17:33:52.024Z,76.15
2023-01-13T17:36:19.648Z,75.74
2023-01-13T17:38:47.610Z,76.69
2023-01-13T17:41:15.042Z,76.70
2023-01-13T17:43:44.433Z,77.02
2023-01-13T17:46:12.828Z,77.06
2023-01-13T17:48:40.638Z,77.10
2023-01-13T17:51:11.832Z,77.51
2023-01-13T17:53:39.875Z,77.95
2023-01-13T17:56:09.208Z,77.68
2023-01-13T17:58:37.507Z,77.74
2023-01-13T18:01:10.757Z,76.95
2023-01-13T18:03:39.272Z,78.40
2023-01-13T18:06:09.180Z,78.05
2023-01-13T18:08:37.465Z,77.90
2023-01-13T18:11:06.424Z,78.08
2023-01-13T18:13:34.942Z,77.94
2023-01-13T18:16:03.719Z,78.53
2023-01-13T18:18:33.214Z,80.74
2023-01-13T18:21:00.773Z,80.87
2023-01-13T18:23:28.896Z,79.46
2023-01-13T18:25:56.388Z,78.86
2023-01-13T18:28:24.364Z,79.48
2023-01-13T18:30:51.811Z,78.36
2023-01-13T18:33:20.083Z,77.25
2023-01-13T18:35:49.066Z,76.43
2023-01-13T18:38:17.540Z,75.71
2023-01-13T18:40:45.066Z,74.57
2023-01-13T18:43:12.875Z,75.69
2023-01-13T18:45:40.345Z,74.79
2023-01-13T18:48:08.597Z,74.99
2023-01-13T18:50:36.064Z,74.67
2023-01-13T18:53:05.369Z,75.92
2023-01-13T18:55:32.722Z,77.67
2023-01-13T18:58:01.153Z,79.83
2023-01-13T19:00:28.587Z,79.75
2023-01-13T19:05:34.392Z,80.28
2023-01-13T19:08:02.509Z,79.55
2023-01-13T19:10:33.981Z,80.49
2023-01-13T19:13:01.953Z,80.70
2023-01-13T19:15:29.713Z,80.30
2023-01-13T19:17:58.022Z,80.02
2023-01-13T19:20:25.624Z,80.05
2023-01-13T19:22:54.005Z,79.77
2023-01-13T19:25:21.651Z,80.20
2023-01-13T19:27:50.980Z,80.64
2023-01-13T19:30:19.301Z,81.68
2023-01-13T19:32:47.200Z,81.27
2023-01-13T19:35:14.690Z,81.07
2023-01-13T19:37:42.505Z,80.79
2023-01-13T19:40:11.342Z,79.54
2023-01-13T19:45:12.485Z,77.25
2023-01-13T19:47:41.105Z,76.37
2023-01-13T19:50:10.118Z,76.40
2023-01-13T19:52:37.995Z,75.37
2023-01-13T19:55:06.416Z,76.31
2023-01-13T19:57:34.350Z,75.67
2023-01-13T20:00:01.705Z,75.65
2023-01-13T20:02:31.508Z,76.78
2023-01-13T20:05:01.526Z,77.52
2023-01-13T20:07:31.034Z,77.26
2023-01-13T20:09:58.579Z,76.82
2023-01-13T20:12:26.601Z,77.94
2023-01-13T20:14:54.169Z,77.77
2023-01-13T20:17:22.460Z,77.47
2023-01-13T20:19:51.354Z,77.41
2023-01-13T20:22:19.148Z,77.60
2023-01-13T20:24:46.556Z,77.97
2023-01-13T20:27:14.370Z,77.79
2023-01-13T20:29:42.019Z,77.42
2023-01-13T20:32:10.611Z,77.16
2023-01-13T20:34:38.155Z,77.03
2023-01-13T20:37:07.512Z,76.88
2023-01-13T20:39:35.002Z,77.05
2023-01-13T20:42:02.868Z,76.10
2023-01-13T20:44:30.997Z,75.15
2023-01-13T20:46:58.973Z,74.87
2023-01-13T20:49:27.802Z,75.44
2023-01-13T20:51:56.244Z,75.66
2023-01-13T20:54:25.545Z,74.91
2023-01-13T20:56:54.158Z,74.15
2023-01-13T20:59:21.715Z,73.24
2023-01-13T21:01:49.893Z,73.10
2023-01-13T21:04:17.370Z,72.29
2023-01-13T21:06:45.497Z,72.82
2023-01-13T21:09:13.015Z,71.97
2023-01-13T21:11:43.243Z,71.67
2023-01-13T21:14:14.120Z,71.76
2023-01-13T21:16:42.039Z,71.52
2023-01-13T21:19:09.592Z,70.63
2023-01-13T21:21:37.593Z,69.88
2023-01-13T21:24:05.775Z,70.15
2023-01-13T21:26:33.818Z,69.98
2023-01-13T21:29:02.872Z,69.95
2023-01-13T21:31:30.870Z,69.45
2023-01-13T21:33:58.963Z,69.00
2023-01-13T21:36:27.929Z,68.72
2023-01-13T21:38:56.912Z,68.44
2023-01-13T21:41:26.340Z,67.84
2023-01-13T21:43:54.154Z,68.18
2023-01-13T21:46:23.971Z,68.37
2023-01-13T21:48:51.508Z,68.27
2023-01-13T21:51:19.427Z,68.26
2023-01-13T21:53:47.204Z,67.82
2023-01-13T21:56:15.432Z,68.37
2023-01-13T21:58:43.020Z,68.34
2023-01-13T22:01:11.957Z,68.04
2023-01-13T22:03:41.395Z,67.30
2023-01-13T22:06:09.437Z,67.76
2023-01-13T22:08:37.051Z,67.71
2023-01-13T22:11:05.287Z,67.99
2023-01-13T22:13:32.823Z,68.05
2023-01-13T22:16:02.909Z,68.07
2023-01-13T22:18:30.330Z,68.10
2023-01-13T22:21:02.168Z,68.04
2023-01-13T22:23:29.767Z,67.95
2023-01-13T22:26:01.334Z,67.96
2023-01-13T22:28:29.516Z,67.81
2023-01-13T22:30:57.521Z,67.49
2023-01-13T22:33:24.963Z,67.68
2023-01-13T22:35:55.076Z,67.43
2023-01-13T22:38:24.248Z,68.50
2023-01-13T22:40:58.550Z,68.83
2023-01-13T22:43:27.123Z,68.21
2023-01-13T22:45:58.683Z,68.53
2023-01-13T22:48:26.266Z,69.23
2023-01-13T22:50:55.097Z,69.78
2023-01-13T22:53:23.930Z,69.61
2023-01-13T22:55:55.347Z,69.29
2023-01-13T22:58:23.583Z,69.67
2023-01-13T23:00:51.686Z,69.88
2023-01-13T23:03:19.529Z,70.09
2023-01-13T23:05:47.516Z,69.75
2023-01-13T23:08:15.060Z,70.07
2023-01-13T23:10:44.211Z,69.45
2023-01-13T23:13:11.717Z,69.03
2023-01-13T23:15:39.505Z,69.19
2023-01-13T23:18:06.960Z,69.13
2023-01-13T23:20:34.870Z,69.64
2023-01-13T23:23:02.347Z,68.89
2023-01-13T23:25:30.513Z,69.40
2023-01-13T23:27:59.464Z,69.84
2023-01-13T23:30:27.614Z,69.67
2023-01-13T23:32:55.101Z,69.97
2023-01-13T23:35:23.192Z,69.63
2023-01-13T23:37:50.684Z,70.41
2023-01-13T23:40:18.649Z,70.82
2023-01-13T23:42:46.273Z,71.32
2023-01-13T23:45:15.960Z,71.04
2023-01-13T23:47:43.691Z,71.56
2023-01-13T23:50:11.829Z,71.58
2023-01-13T23:52:39.362Z,71.67
2023-01-13T23:55:07.771Z,71.78
2023-01-13T23:57:35.480Z,72.61
